Repton, Alabama
Current Conditions -  °F | °C
As of 11:53 AM on Monday 26 Jan 2015 (Local Time) from KGZH Reporting Station
Broken Clouds Broken Clouds  
Wind Chill: 51°   Ceiling: 3100
Heat Index: 51°   Visibility: 10mi
Dew Point: 36°   Wind: 12mph
Humidity: 56%   Direction: 330°NNW
Pressure: 30.03"   Gusts: 21mph
Location:  31.41°N, 87.24°W
Report Text: KGZH 261753Z AUTO 33010G18KT 10SM BKN031 11/02 A3003 RMK AO2 SLP167 T01060022 10106 20083 58002
Loading
Personal Weather Stations






























Interactive Weather Map New forecast layout! Learn more

10-Day Weather Forecast

Advertisements
Track Severe Weather on mobile